Time;durP1;ratioP1;P1;durP2;ratioP2;P2;SDS_P1;SDS_P2;PMS_P1;PMS_P2;Temp;Humidity;BMP_temperature;BMP_pressure;BME280_temperature;BME280_humidity;BME280_pressure;Samples;Min_cycle;Max_cycle;Signal;HPM_P1;HPM_P2
2023/07/29 00:01:54;;;;;;;3.50;3.30;;;;;;;16.72;100.00;96570.63;5014161;28;20233;-60
2023/07/29 00:04:21;;;;;;;3.13;2.93;;;;;;;16.70;100.00;96575.41;4888871;28;20220;-59
2023/07/29 00:06:49;;;;;;;4.43;3.27;;;;;;;16.69;100.00;96582.59;5014240;28;20267;-61
2023/07/29 00:09:18;;;;;;;3.63;3.43;;;;;;;16.71;100.00;96587.72;5010159;28;20669;-61
2023/07/29 00:11:46;;;;;;;4.20;3.80;;;;;;;16.73;100.00;96582.94;5016618;28;20323;-62
2023/07/29 00:14:13;;;;;;;4.10;3.80;;;;;;;16.68;100.00;96596.22;5012718;28;20247;-61
2023/07/29 00:16:43;;;;;;;4.30;4.00;;;;;;;16.65;100.00;96594.81;5014716;28;20201;-62
2023/07/29 00:19:10;;;;;;;3.47;3.27;;;;;;;16.67;100.00;96597.25;5014851;28;20196;-60
2023/07/29 00:21:38;;;;;;;3.57;3.37;;;;;;;16.60;100.00;96597.41;5018264;28;20251;-61
2023/07/29 00:24:06;;;;;;;4.63;3.20;;;;;;;16.56;100.00;96593.56;4962770;28;20391;-62
2023/07/29 00:26:34;;;;;;;4.00;3.70;;;;;;;16.58;100.00;96597.63;5015727;28;20225;-62
2023/07/29 00:29:02;;;;;;;3.50;3.30;;;;;;;16.55;100.00;96603.44;5013841;28;20613;-61
2023/07/29 00:31:30;;;;;;;4.07;3.87;;;;;;;16.51;100.00;96609.53;5018773;28;20788;-63
2023/07/29 00:33:59;;;;;;;4.10;3.80;;;;;;;16.49;100.00;96607.91;5007912;28;20212;-62
2023/07/29 00:36:26;;;;;;;4.00;3.70;;;;;;;16.48;100.00;96610.78;5014037;28;20246;-62
2023/07/29 00:38:56;;;;;;;4.20;3.80;;;;;;;16.45;100.00;96612.06;4823243;28;20508;-62
2023/07/29 00:41:24;;;;;;;4.10;3.80;;;;;;;16.49;100.00;96609.75;5010388;28;20537;-63
2023/07/29 00:43:52;;;;;;;4.03;3.73;;;;;;;16.48;100.00;96608.94;5013794;28;20374;-62
2023/07/29 00:46:21;;;;;;;3.37;3.17;;;;;;;16.47;100.00;96609.16;5014626;28;20212;-63
2023/07/29 00:48:48;;;;;;;3.93;3.63;;;;;;;16.48;100.00;96605.44;5013187;28;20295;-64
2023/07/29 00:51:18;;;;;;;4.13;3.83;;;;;;;16.50;100.00;96600.66;5012274;28;20299;-62
2023/07/29 00:53:46;;;;;;;3.33;3.13;;;;;;;16.45;100.00;96603.25;4979430;28;20860;-62
2023/07/29 00:56:14;;;;;;;3.70;3.37;;;;;;;16.43;100.00;96603.47;5002516;28;20331;-62
2023/07/29 00:58:41;;;;;;;4.00;3.80;;;;;;;16.34;100.00;96595.03;5008492;28;20782;-61
2023/07/29 01:01:09;;;;;;;4.03;3.83;;;;;;;16.35;100.00;96598.50;5010428;28;20529;-62
2023/07/29 01:03:37;;;;;;;5.37;4.13;;;;;;;16.29;100.00;96599.44;5009893;28;20201;-61
2023/07/29 01:06:10;;;;;;;4.13;3.87;;;;;;;16.31;100.00;96602.69;5010019;28;20209;-61
2023/07/29 01:08:48;;;;;;;4.60;4.13;;;;;;;16.38;100.00;96603.38;4943369;28;21618;-62
2023/07/29 01:11:30;;;;;;;3.90;3.70;;;;;;;16.44;100.00;96604.28;4988640;28;20281;-63
2023/07/29 01:14:02;;;;;;;4.77;4.40;;;;;;;16.37;100.00;96598.28;5014074;28;20208;-62
2023/07/29 01:16:32;;;;;;;3.60;3.30;;;;;;;16.33;100.00;96595.25;5013931;28;20251;-64
2023/07/29 01:19:03;;;;;;;4.53;4.13;;;;;;;16.25;100.00;96584.91;5011270;28;20200;-63
2023/07/29 01:21:31;;;;;;;3.77;3.50;;;;;;;16.25;100.00;96590.25;5012927;28;20474;-64
2023/07/29 01:24:00;;;;;;;3.70;3.40;;;;;;;16.13;100.00;96585.75;4963819;28;20986;-63
2023/07/29 01:26:29;;;;;;;4.13;3.80;;;;;;;16.10;100.00;96591.56;5016525;28;20592;-63
2023/07/29 01:28:58;;;;;;;3.43;3.13;;;;;;;16.06;100.00;96587.72;5007207;28;20201;-63
2023/07/29 01:31:30;;;;;;;4.17;3.77;;;;;;;16.08;100.00;96579.47;5015232;28;20579;-62
2023/07/29 01:34:00;;;;;;;4.30;3.97;;;;;;;16.08;100.00;96585.63;5009857;28;20205;-63
2023/07/29 01:36:29;;;;;;;3.80;3.60;;;;;;;16.08;100.00;96584.81;5012756;28;21101;-62
2023/07/29 01:38:59;;;;;;;3.50;3.30;;;;;;;16.06;100.00;96587.72;4901616;28;21401;-61
2023/07/29 01:41:27;;;;;;;4.20;3.90;;;;;;;16.12;100.00;96584.13;5016535;28;20246;-62
2023/07/29 01:43:55;;;;;;;4.63;4.30;;;;;;;16.18;100.00;96595.72;5007254;28;20501;-63
2023/07/29 01:46:23;;;;;;;4.53;4.13;;;;;;;16.16;100.00;96587.13;5011590;28;20228;-62
2023/07/29 01:48:51;;;;;;;5.20;3.90;;;;;;;16.13;100.00;96582.25;5012449;28;20493;-62
2023/07/29 01:51:18;;;;;;;4.10;3.80;;;;;;;15.99;100.00;96576.34;5006723;28;20220;-61
2023/07/29 01:53:46;;;;;;;5.03;4.67;;;;;;;16.01;100.00;96582.25;5010993;28;20441;-62
2023/07/29 01:56:15;;;;;;;3.30;3.10;;;;;;;16.06;100.00;96579.69;5012919;28;20243;-62
2023/07/29 01:58:43;;;;;;;4.10;3.50;;;;;;;16.01;100.00;96579.59;4976151;28;20735;-62
2023/07/29 02:01:11;;;;;;;3.70;3.50;;;;;;;15.95;100.00;96578.69;4951923;28;20224;-61
2023/07/29 02:03:38;;;;;;;4.57;4.17;;;;;;;15.90;100.00;96582.03;4996353;28;20217;-64
2023/07/29 02:06:06;;;;;;;4.33;4.03;;;;;;;15.95;100.00;96585.88;5010625;28;20216;-64
2023/07/29 02:08:34;;;;;;;3.90;3.60;;;;;;;15.95;100.00;96588.53;4992102;28;20643;-62
2023/07/29 02:11:02;;;;;;;3.90;3.60;;;;;;;15.84;100.00;96564.25;4957666;28;20881;-62
2023/07/29 02:13:31;;;;;;;4.17;3.53;;;;;;;15.90;100.00;96586.56;4955660;28;20216;-62
2023/07/29 02:15:59;;;;;;;3.40;3.20;;;;;;;15.87;100.00;96592.34;5011090;28;20232;-62
2023/07/29 02:18:27;;;;;;;3.40;3.20;;;;;;;15.86;100.00;96594.22;5008550;28;20215;-65
2023/07/29 02:20:54;;;;;;;4.00;3.80;;;;;;;15.91;100.00;96591.69;5011845;28;20302;-64
2023/07/29 02:23:22;;;;;;;4.80;4.40;;;;;;;15.93;100.00;96586.13;5010022;28;20212;-64
2023/07/29 02:25:51;;;;;;;4.20;3.80;;;;;;;15.93;100.00;96587.97;5010489;28;20208;-64
2023/07/29 02:28:18;;;;;;;4.30;3.97;;;;;;;15.94;100.00;96586.91;5008954;28;20544;-64
2023/07/29 02:30:49;;;;;;;9.53;5.03;;;;;;;15.95;100.00;96583.19;5009779;28;20216;-63
2023/07/29 02:33:17;;;;;;;4.40;4.10;;;;;;;15.96;100.00;96590.16;4974252;28;20815;-62
2023/07/29 02:35:45;;;;;;;4.40;4.10;;;;;;;15.99;100.00;96598.53;5015330;28;20287;-60
2023/07/29 02:38:12;;;;;;;4.47;4.07;;;;;;;16.01;100.00;96601.78;5012180;28;20289;-60
2023/07/29 02:40:41;;;;;;;4.40;4.10;;;;;;;16.05;100.00;96599.44;5011819;28;20268;-61
2023/07/29 02:43:09;;;;;;;5.37;4.27;;;;;;;16.03;100.00;96605.03;4902860;28;20247;-61
2023/07/29 02:45:36;;;;;;;6.00;4.60;;;;;;;16.08;100.00;96603.53;5012598;28;20208;-63
2023/07/29 02:48:05;;;;;;;4.50;4.10;;;;;;;16.09;100.00;96594.47;5010378;28;20232;-61
2023/07/29 02:50:35;;;;;;;5.00;4.50;;;;;;;16.00;100.00;96594.81;5016539;28;20199;-62
2023/07/29 02:53:03;;;;;;;4.13;3.57;;;;;;;16.00;100.00;96597.50;5012122;28;20208;-62
2023/07/29 02:55:30;;;;;;;5.30;4.27;;;;;;;16.05;100.00;96594.09;5013089;28;20207;-61
2023/07/29 02:57:58;;;;;;;4.77;4.40;;;;;;;16.06;100.00;96599.22;5003707;28;20297;-62
2023/07/29 03:00:26;;;;;;;4.70;4.40;;;;;;;16.15;100.00;96593.53;5011614;28;20292;-62
2023/07/29 03:02:53;;;;;;;4.57;4.20;;;;;;;16.16;100.00;96590.63;4956409;28;20483;-60
2023/07/29 03:05:23;;;;;;;5.83;4.90;;;;;;;16.12;100.00;96583.31;5013157;28;20227;-62
2023/07/29 03:07:50;;;;;;;4.93;4.43;;;;;;;16.00;100.00;96573.44;5004300;28;20205;-61
2023/07/29 03:10:18;;;;;;;4.77;4.47;;;;;;;15.76;100.00;96573.41;5014979;28;20745;-62
2023/07/29 03:12:46;;;;;;;5.43;4.93;;;;;;;15.59;100.00;96567.16;5003969;28;20228;-62
2023/07/29 03:15:14;;;;;;;6.47;4.97;;;;;;;15.58;100.00;96573.53;5011502;28;20239;-62
2023/07/29 03:17:41;;;;;;;4.07;3.87;;;;;;;15.47;100.00;96570.59;4889256;28;20262;-63
2023/07/29 03:20:09;;;;;;;4.73;4.43;;;;;;;15.44;100.00;96568.41;4943535;28;20219;-64
2023/07/29 03:22:38;;;;;;;5.00;4.70;;;;;;;15.43;100.00;96565.97;5017480;28;20254;-62
2023/07/29 03:25:07;;;;;;;5.07;4.67;;;;;;;15.33;100.00;96563.88;5005547;28;20208;-63
2023/07/29 03:27:36;;;;;;;5.10;4.70;;;;;;;15.25;100.00;96570.34;5009561;28;20714;-63
2023/07/29 03:30:04;;;;;;;4.87;4.50;;;;;;;15.25;100.00;96565.00;5010269;28;20204;-61
2023/07/29 03:32:32;;;;;;;5.30;4.90;;;;;;;15.24;100.00;96563.38;5016789;28;20228;-63
2023/07/29 03:35:00;;;;;;;5.50;5.10;;;;;;;15.16;100.00;96553.88;4956412;28;20204;-62
2023/07/29 03:37:27;;;;;;;4.97;4.67;;;;;;;15.13;100.00;96556.97;5009844;28;20295;-63
2023/07/29 03:39:56;;;;;;;5.10;4.77;;;;;;;15.11;100.00;96559.06;4994630;28;20307;-63
2023/07/29 03:42:24;;;;;;;5.53;5.03;;;;;;;15.07;100.00;96567.75;4972871;28;20940;-63
2023/07/29 03:44:52;;;;;;;6.00;5.50;;;;;;;15.05;100.00;96568.81;4980642;28;20228;-64
2023/07/29 03:47:20;;;;;;;6.17;5.03;;;;;;;15.06;100.00;96564.25;4970181;28;20473;-63
2023/07/29 03:49:48;;;;;;;5.30;4.80;;;;;;;15.09;100.00;96563.00;4946132;28;20232;-63
2023/07/29 03:52:16;;;;;;;5.47;4.97;;;;;;;15.04;100.00;96566.34;5006930;28;20335;-65
2023/07/29 03:54:43;;;;;;;5.30;4.90;;;;;;;15.00;100.00;96559.84;5012421;28;20314;-64
2023/07/29 03:57:13;;;;;;;6.07;5.63;;;;;;;14.88;100.00;96539.28;5004744;28;20769;-62
2023/07/29 03:59:41;;;;;;;7.33;5.10;;;;;;;14.96;100.00;96564.81;4971064;28;20270;-63
2023/07/29 04:02:09;;;;;;;5.93;5.43;;;;;;;14.96;100.00;96564.81;5012121;28;20319;-62
2023/07/29 04:04:36;;;;;;;5.37;4.97;;;;;;;14.96;100.00;96572.81;5010334;28;20448;-63
2023/07/29 04:07:05;;;;;;;5.90;5.40;;;;;;;14.93;100.00;96559.94;5012346;28;20211;-64
2023/07/29 04:09:33;;;;;;;5.73;5.33;;;;;;;15.02;100.00;96560.44;4964358;28;20208;-63
2023/07/29 04:12:00;;;;;;;6.37;5.87;;;;;;;15.00;100.00;96568.66;5014591;28;20216;-62
2023/07/29 04:14:29;;;;;;;5.90;5.37;;;;;;;14.98;100.00;96562.75;5009907;28;21406;-63
2023/07/29 04:16:57;;;;;;;6.37;5.87;;;;;;;15.00;100.00;96570.50;5014516;28;20715;-64
2023/07/29 04:19:25;;;;;;;6.47;6.03;;;;;;;15.01;100.00;96561.47;5012809;28;20262;-62
2023/07/29 04:21:52;;;;;;;7.13;6.63;;;;;;;15.01;100.00;96562.28;5014232;28;20611;-62
2023/07/29 04:24:23;;;;;;;7.00;6.50;;;;;;;15.05;100.00;96562.63;4898064;28;20597;-65
2023/07/29 04:26:50;;;;;;;8.43;7.67;;;;;;;15.13;100.00;96569.50;5012556;28;20209;-63
2023/07/29 04:29:22;;;;;;;7.00;6.30;;;;;;;15.22;100.00;96564.66;4955560;28;20263;-64
2023/07/29 04:31:51;;;;;;;7.53;6.97;;;;;;;15.33;100.00;96566.53;5018573;28;20219;-63
2023/07/29 04:34:20;;;;;;;9.13;7.40;;;;;;;15.25;100.00;96550.88;4997206;28;20692;-61
2023/07/29 04:36:48;;;;;;;7.43;6.80;;;;;;;15.43;100.00;96569.44;4960430;28;20209;-63
2023/07/29 04:39:16;;;;;;;8.43;7.73;;;;;;;15.47;100.00;96567.94;5016974;28;20232;-63
2023/07/29 04:41:44;;;;;;;9.47;8.67;;;;;;;15.49;100.00;96573.84;4966091;28;20483;-63
2023/07/29 04:44:12;;;;;;;10.57;9.57;;;;;;;15.48;100.00;96563.44;5013715;28;20208;-62
2023/07/29 04:46:39;;;;;;;9.93;9.13;;;;;;;15.59;100.00;96559.94;5012623;28;20284;-62
2023/07/29 04:49:08;;;;;;;10.17;9.27;;;;;;;15.66;100.00;96569.69;5019396;28;20282;-61
2023/07/29 04:51:37;;;;;;;10.43;9.53;;;;;;;15.67;100.00;96564.13;5007367;28;20940;-64
2023/07/29 04:54:04;;;;;;;10.80;10.00;;;;;;;15.70;100.00;96562.84;5012285;28;20898;-63
2023/07/29 04:56:32;;;;;;;10.67;9.87;;;;;;;15.72;100.00;96563.41;4891927;28;20513;-62
2023/07/29 04:59:00;;;;;;;11.20;10.30;;;;;;;15.83;100.00;96567.13;5015908;28;20221;-62
2023/07/29 05:01:27;;;;;;;10.47;9.67;;;;;;;15.86;100.00;96572.84;4954599;28;20240;-63
2023/07/29 05:03:55;;;;;;;11.07;10.17;;;;;;;15.80;100.00;96564.94;5015911;28;20656;-62
2023/07/29 05:06:24;;;;;;;12.50;11.50;;;;;;;15.90;100.00;96565.19;5008401;28;20201;-62
2023/07/29 05:08:52;;;;;;;12.77;11.47;;;;;;;15.93;100.00;96570.09;5012204;28;20753;-64
2023/07/29 05:11:20;;;;;;;12.80;11.70;;;;;;;16.06;100.00;96558.31;5009862;28;20311;-66
2023/07/29 05:13:47;;;;;;;12.23;11.13;;;;;;;16.12;100.00;96562.75;5015997;28;20204;-63
2023/07/29 05:16:15;;;;;;;13.23;11.97;;;;;;;16.28;100.00;96560.38;4953857;28;20209;-65
2023/07/29 05:18:43;;;;;;;11.97;11.07;;;;;;;16.34;100.00;96546.91;5012575;28;20197;-64
2023/07/29 05:21:14;;;;;;;13.57;12.27;;;;;;;16.25;100.00;96555.53;5010398;28;20281;-64
2023/07/29 05:23:43;;;;;;;13.17;12.20;;;;;;;16.17;100.00;96557.50;5017117;28;20228;-65
2023/07/29 05:26:10;;;;;;;13.37;12.07;;;;;;;16.05;100.00;96556.69;5010296;28;20233;-64
2023/07/29 05:28:38;;;;;;;13.70;12.60;;;;;;;16.22;100.00;96556.78;5016230;28;21437;-65
2023/07/29 05:31:06;;;;;;;13.27;12.17;;;;;;;16.61;100.00;96556.22;4900508;28;20229;-63
2023/07/29 05:33:36;;;;;;;12.67;11.57;;;;;;;16.93;100.00;96537.81;5008290;28;20358;-64
2023/07/29 05:36:04;;;;;;;12.57;11.47;;;;;;;16.84;100.00;96525.91;5008494;28;20315;-65
2023/07/29 05:38:32;;;;;;;13.90;12.60;;;;;;;17.11;100.00;96532.53;5013947;28;20259;-65
2023/07/29 05:41:01;;;;;;;13.37;12.30;;;;;;;17.38;100.00;96532.69;5011211;28;20244;-65
2023/07/29 05:43:29;;;;;;;12.60;11.70;;;;;;;17.64;100.00;96523.19;5011514;28;20765;-63
2023/07/29 05:45:56;;;;;;;13.50;12.20;;;;;;;17.81;100.00;96524.25;5009067;28;20306;-64
2023/07/29 05:48:24;;;;;;;13.37;12.47;;;;;;;17.83;100.00;96514.09;5009952;28;20239;-64
2023/07/29 05:50:52;;;;;;;12.63;11.53;;;;;;;18.06;100.00;96515.75;4959716;28;20306;-64
2023/07/29 05:53:19;;;;;;;12.37;11.27;;;;;;;18.18;100.00;96513.75;5011963;28;20200;-64
2023/07/29 05:55:47;;;;;;;12.83;11.83;;;;;;;18.64;100.00;96510.78;5011521;28;20254;-62
2023/07/29 05:58:16;;;;;;;12.57;11.57;;;;;;;18.56;100.00;96502.38;5007201;28;20215;-64
2023/07/29 06:00:44;;;;;;;13.53;12.37;;;;;;;18.37;100.00;96490.13;5008613;28;20772;-63
2023/07/29 06:03:11;;;;;;;13.03;12.03;;;;;;;18.25;100.00;96500.16;5012732;28;20232;-63
2023/07/29 06:05:40;;;;;;;14.23;13.13;;;;;;;18.11;100.00;96497.06;4889332;28;20213;-64
2023/07/29 06:08:08;;;;;;;12.67;11.57;;;;;;;18.35;100.00;96499.47;5016066;28;20832;-63
2023/07/29 06:10:36;;;;;;;13.73;12.53;;;;;;;18.41;100.00;96490.44;5010858;28;20838;-63
2023/07/29 06:13:03;;;;;;;12.43;11.47;;;;;;;18.61;100.00;96487.16;5013613;28;20204;-63
2023/07/29 06:15:32;;;;;;;12.40;11.50;;;;;;;18.56;100.00;96492.47;5009344;28;20204;-65
2023/07/29 06:18:00;;;;;;;11.90;11.00;;;;;;;18.73;100.00;96483.50;5015606;28;20208;-64
2023/07/29 06:20:28;;;;;;;11.90;11.00;;;;;;;18.72;100.00;96482.69;5010214;28;20209;-64
2023/07/29 06:22:55;;;;;;;12.93;12.03;;;;;;;18.91;100.00;96476.97;5017377;28;20232;-63
2023/07/29 06:25:23;;;;;;;11.53;10.73;;;;;;;18.83;100.00;96470.16;4961505;28;20208;-64
2023/07/29 06:27:51;;;;;;;13.50;12.50;;;;;;;18.91;100.00;96471.59;5012189;28;20270;-62
2023/07/29 06:30:18;;;;;;;15.67;14.47;;;;;;;18.53;100.00;96479.53;5013484;28;20200;-62
2023/07/29 06:32:47;;;;;;;15.67;14.37;;;;;;;18.36;100.00;96496.53;5012445;28;20254;-62
2023/07/29 06:35:15;;;;;;;16.03;14.83;;;;;;;18.37;100.00;96500.00;4889509;28;20327;-62
2023/07/29 06:37:43;;;;;;;15.93;14.70;;;;;;;18.55;100.00;96500.75;5012342;28;20212;-61
2023/07/29 06:40:11;;;;;;;15.63;14.43;;;;;;;18.55;100.00;96503.44;5013273;28;20289;-61
2023/07/29 06:42:39;;;;;;;15.77;14.43;;;;;;;18.46;100.00;96501.22;5009163;28;20746;-62
2023/07/29 06:45:08;;;;;;;15.23;14.03;;;;;;;18.53;100.00;96495.63;5009412;28;20205;-62
2023/07/29 06:47:35;;;;;;;16.50;15.13;;;;;;;18.65;100.00;96500.84;5015740;28;20200;-63
2023/07/29 06:50:05;;;;;;;16.27;14.93;;;;;;;18.93;100.00;96507.03;5006969;28;20204;-63
2023/07/29 06:52:33;;;;;;;16.60;15.40;;;;;;;19.16;100.00;96502.44;5011557;28;20224;-63
2023/07/29 06:55:00;;;;;;;15.03;14.00;;;;;;;19.12;100.00;96495.94;4956525;28;20712;-62
2023/07/29 06:57:28;;;;;;;15.90;14.60;;;;;;;19.29;100.00;96499.31;5011548;28;20236;-61
2023/07/29 06:59:56;;;;;;;15.60;14.30;;;;;;;19.14;100.00;96488.47;5008179;28;20777;-63
2023/07/29 07:02:23;;;;;;;14.17;13.07;;;;;;;19.27;100.00;96492.56;5013206;28;20730;-62
2023/07/29 07:04:51;;;;;;;12.27;11.47;;;;;;;19.52;100.00;96495.44;4919894;28;20956;-62
2023/07/29 07:07:21;;;;;;;12.73;11.83;;;;;;;19.83;100.00;96494.81;4994875;28;20266;-63
2023/07/29 07:09:48;;;;;;;10.53;9.83;;;;;;;19.84;100.00;96506.41;5011474;28;20263;-62
2023/07/29 07:12:16;;;;;;;8.93;8.43;;;;;;;19.73;100.00;96500.97;5010837;28;20404;-63
2023/07/29 07:14:44;;;;;;;10.93;10.13;;;;;;;19.82;100.00;96503.94;5009219;28;20386;-62
2023/07/29 07:17:11;;;;;;;9.13;8.27;;;;;;;19.63;100.00;96506.25;5009092;28;20896;-62
2023/07/29 07:19:40;;;;;;;9.13;8.43;;;;;;;19.42;100.00;96511.50;5011416;28;20255;-62
2023/07/29 07:22:08;;;;;;;8.27;7.63;;;;;;;19.20;100.00;96500.88;4944225;28;20231;-63
2023/07/29 07:24:37;;;;;;;8.63;7.83;;;;;;;19.32;100.00;96500.66;5004888;28;20323;-62
2023/07/29 07:27:05;;;;;;;8.57;7.73;;;;;;;19.17;100.00;96499.50;5011199;28;20201;-62
2023/07/29 07:29:33;;;;;;;7.97;7.37;;;;;;;19.19;100.00;96489.28;4954882;28;20236;-63
2023/07/29 07:32:00;;;;;;;9.33;8.73;;;;;;;19.22;100.00;96483.41;5011312;28;20252;-63
2023/07/29 07:34:28;;;;;;;9.67;8.87;;;;;;;19.53;100.00;96475.56;4958371;28;20675;-62
2023/07/29 07:36:56;;;;;;;7.57;6.97;;;;;;;19.95;100.00;96483.88;5008338;28;20302;-62
2023/07/29 07:39:23;;;;;;;7.63;7.03;;;;;;;20.05;100.00;96477.75;4893253;28;20351;-62
2023/07/29 07:41:52;;;;;;;6.13;5.63;;;;;;;20.32;100.00;96492.94;5008251;28;20303;-62
2023/07/29 07:44:20;;;;;;;6.90;6.47;;;;;;;20.24;100.00;96491.56;5008265;28;20264;-62
2023/07/29 07:46:48;;;;;;;5.23;4.83;;;;;;;20.34;100.00;96496.16;5014414;28;20266;-62
2023/07/29 07:49:16;;;;;;;5.50;5.00;;;;;;;20.30;100.00;96495.88;5012562;28;20200;-60
2023/07/29 07:51:44;;;;;;;5.03;4.63;;;;;;;20.52;100.00;96492.97;5012313;28;20231;-62
2023/07/29 07:54:12;;;;;;;4.43;4.20;;;;;;;20.79;100.00;96491.16;5009286;28;20250;-62
2023/07/29 07:56:39;;;;;;;5.10;4.70;;;;;;;20.80;100.00;96496.31;5012624;28;20292;-62
2023/07/29 07:59:09;;;;;;;4.00;3.80;;;;;;;20.74;100.00;96507.28;4960351;28;20251;-63
2023/07/29 08:01:37;;;;;;;3.97;3.77;;;;;;;20.23;100.00;96498.00;5017625;28;20259;-63
2023/07/29 08:04:05;;;;;;;4.80;4.50;;;;;;;19.76;100.00;96492.38;5014583;28;20315;-64
2023/07/29 08:06:33;;;;;;;4.13;3.93;;;;;;;19.48;100.00;96483.59;5013372;28;20204;-63
2023/07/29 08:09:01;;;;;;;4.93;4.53;;;;;;;19.08;100.00;96504.50;4926318;28;20217;-63
2023/07/29 08:11:28;;;;;;;4.77;4.37;;;;;;;19.13;100.00;96519.03;5012191;28;20255;-63
2023/07/29 08:13:56;;;;;;;4.30;3.90;;;;;;;19.14;100.00;96528.75;5014075;28;20232;-63
2023/07/29 08:16:25;;;;;;;5.20;4.80;;;;;;;18.98;100.00;96536.63;5015898;28;20287;-62
2023/07/29 08:18:53;;;;;;;4.70;4.40;;;;;;;18.71;100.00;96521.31;5012640;28;20665;-63
2023/07/29 08:21:21;;;;;;;5.60;4.57;;;;;;;18.57;100.00;96539.69;5012872;28;20271;-64
2023/07/29 08:23:49;;;;;;;7.60;6.90;;;;;;;18.28;100.00;96552.47;5008203;28;20255;-64
2023/07/29 08:26:16;;;;;;;5.13;4.60;;;;;;;18.06;100.00;96555.97;5011801;28;20310;-64
2023/07/29 08:28:44;;;;;;;5.20;4.70;;;;;;;18.00;100.00;96541.63;4958680;28;20212;-63
2023/07/29 08:31:12;;;;;;;4.17;3.90;;;;;;;17.73;100.00;96545.00;5016390;28;20274;-63
2023/07/29 08:33:41;;;;;;;5.17;4.60;;;;;;;17.61;100.00;96550.44;5009432;28;20226;-62
2023/07/29 08:36:08;;;;;;;4.57;4.17;;;;;;;17.40;100.00;96559.25;5013700;28;20496;-63
2023/07/29 08:38:36;;;;;;;4.23;3.93;;;;;;;17.25;100.00;96555.28;4891513;28;20212;-63
2023/07/29 08:41:12;;;;;;;3.87;3.57;;;;;;;17.13;100.00;96551.81;5015255;28;20269;-62
2023/07/29 08:43:41;;;;;;;4.77;3.57;;;;;;;16.95;100.00;96545.63;5008080;28;20910;-63
2023/07/29 08:46:09;;;;;;;3.17;2.70;;;;;;;16.75;100.00;96546.06;5012834;28;20208;-63
2023/07/29 08:48:42;;;;;;;3.00;2.80;;;;;;;16.69;100.00;96523.75;5014613;28;20262;-63
2023/07/29 08:51:11;;;;;;;2.60;2.50;;;;;;;16.67;100.00;96519.69;5011932;28;20308;-62
2023/07/29 08:53:39;;;;;;;3.17;2.87;;;;;;;16.57;100.00;96520.31;5012998;28;20761;-63
2023/07/29 08:56:07;;;;;;;2.90;2.70;;;;;;;16.45;100.00;96526.50;5014959;28;20232;-63
2023/07/29 08:58:36;;;;;;;3.70;3.20;;;;;;;16.60;100.00;96519.84;4964478;28;20227;-63
2023/07/29 09:01:03;;;;;;;3.10;2.80;;;;;;;16.62;100.00;96539.94;5020127;28;20243;-64
2023/07/29 09:03:31;;;;;;;3.73;3.37;;;;;;;16.75;100.00;96538.03;5014087;28;20216;-63
2023/07/29 09:06:01;;;;;;;3.23;3.03;;;;;;;16.88;100.00;96528.91;5017566;28;20542;-63
2023/07/29 09:08:28;;;;;;;3.17;2.93;;;;;;;16.88;100.00;96504.84;5012106;28;20308;-63
2023/07/29 09:10:56;;;;;;;3.10;2.90;;;;;;;17.08;100.00;96520.47;5014575;28;20312;-63
2023/07/29 09:13:24;;;;;;;4.27;3.53;;;;;;;17.28;100.00;96509.28;4889401;28;20438;-62
2023/07/29 09:15:55;;;;;;;3.93;3.63;;;;;;;17.40;100.00;96500.34;5014702;28;20226;-63
2023/07/29 09:18:23;;;;;;;4.17;3.87;;;;;;;17.44;100.00;96504.97;5013840;28;20235;-63
2023/07/29 09:20:51;;;;;;;4.70;3.90;;;;;;;17.54;100.00;96500.81;5012959;28;20712;-63
2023/07/29 09:23:20;;;;;;;4.17;3.87;;;;;;;17.90;100.00;96510.16;5007876;28;20636;-63
2023/07/29 09:25:48;;;;;;;4.77;3.70;;;;;;;18.21;100.00;96505.22;5013920;28;20307;-63
2023/07/29 09:28:17;;;;;;;3.10;2.90;;;;;;;18.28;100.00;96498.84;4959937;28;20341;-63
2023/07/29 09:30:48;;;;;;;3.20;3.00;;;;;;;18.56;100.00;96502.38;5014400;28;20232;-63
2023/07/29 09:33:15;;;;;;;3.60;3.20;;;;;;;18.54;100.00;96494.56;5012675;28;20383;-64
2023/07/29 09:35:43;;;;;;;2.53;2.43;;;;;;;18.37;100.00;96494.66;5012359;28;20197;-63
2023/07/29 09:38:15;;;;;;;3.23;3.03;;;;;;;18.35;100.00;96494.09;5013269;28;21129;-64
2023/07/29 09:40:45;;;;;;;2.80;2.67;;;;;;;18.46;100.00;96489.66;5012369;28;20304;-64
2023/07/29 09:43:12;;;;;;;4.20;3.13;;;;;;;18.39;100.00;96494.41;5008534;28;20296;-63
2023/07/29 09:45:40;;;;;;;2.90;2.80;;;;;;;18.74;100.00;96491.28;5012443;28;20221;-64
2023/07/29 09:48:10;;;;;;;5.70;5.30;;;;;;;18.49;100.00;96498.03;4888150;28;21325;-63
2023/07/29 09:50:38;;;;;;;2.90;2.70;;;;;;;18.74;100.00;96495.84;5012024;28;20223;-63
2023/07/29 09:53:08;;;;;;;3.17;2.83;;;;;;;18.72;100.00;96496.09;5011166;28;20240;-64
2023/07/29 09:55:35;;;;;;;2.37;2.27;;;;;;;18.87;100.00;96498.13;5012479;28;20296;-63
2023/07/29 09:58:07;;;;;;;2.53;2.40;;;;;;;19.17;100.00;96498.69;4954757;28;21017;-63
2023/07/29 10:00:38;;;;;;;3.13;2.90;;;;;;;19.32;100.00;96498.81;5010934;28;20236;-63
2023/07/29 10:03:06;;;;;;;3.00;2.77;;;;;;;19.27;100.00;96500.63;5011044;28;20200;-63
2023/07/29 10:05:34;;;;;;;2.90;2.70;;;;;;;19.48;100.00;96498.91;5014081;28;20676;-63
2023/07/29 10:08:02;;;;;;;5.17;2.90;;;;;;;19.36;100.00;96497.22;5005374;28;20706;-63
2023/07/29 10:10:30;;;;;;;2.80;2.60;;;;;;;19.58;100.00;96514.28;5011711;28;20197;-63
2023/07/29 10:12:58;;;;;;;2.67;2.57;;;;;;;19.21;100.00;96529.34;5006577;28;20236;-64
2023/07/29 10:15:27;;;;;;;3.40;3.10;;;;;;;18.85;100.00;96531.66;5010046;28;20196;-63
2023/07/29 10:17:55;;;;;;;3.57;3.23;;;;;;;18.34;100.00;96527.34;4884223;28;21206;-63
2023/07/29 10:20:23;;;;;;;13.07;3.90;;;;;;;18.36;100.00;96552.03;5011234;28;20295;-63
2023/07/29 10:22:52;;;;;;;3.77;3.57;;;;;;;18.53;100.00;96543.91;5011229;28;20647;-66
2023/07/29 10:25:23;;;;;;;3.60;2.87;;;;;;;18.55;100.00;96544.47;5014272;28;20788;-64
2023/07/29 10:27:53;;;;;;;3.43;3.23;;;;;;;18.55;100.00;96543.69;5010231;28;20220;-64
2023/07/29 10:30:21;;;;;;;3.47;3.10;;;;;;;18.67;100.00;96536.28;5012648;28;20204;-63
2023/07/29 10:32:51;;;;;;;3.23;2.97;;;;;;;18.83;100.00;96509.63;4957501;28;23002;-63
2023/07/29 10:35:18;;;;;;;3.40;3.10;;;;;;;19.22;100.00;96512.16;5009886;28;20204;-64
2023/07/29 10:37:50;;;;;;;3.30;3.10;;;;;;;19.24;100.00;96512.72;5011570;28;20228;-64
2023/07/29 10:40:19;;;;;;;3.90;3.00;;;;;;;19.39;100.00;96506.66;5011056;28;20201;-63
2023/07/29 10:43:01;;;;;;;2.97;2.77;;;;;;;19.64;100.00;96497.13;5012030;28;20204;-63
2023/07/29 10:45:37;;;;;;;3.20;3.00;;;;;;;19.94;100.00;96496.53;5011143;28;20742;-63
2023/07/29 10:48:08;;;;;;;3.50;3.30;;;;;;;20.45;100.00;96497.81;5012478;28;20547;-64
2023/07/29 10:50:36;;;;;;;4.57;2.80;;;;;;;20.86;100.00;96512.47;5013827;28;20661;-65
2023/07/29 10:53:04;;;;;;;3.27;2.97;;;;;;;21.72;100.00;96512.75;4887748;28;20426;-64
2023/07/29 10:55:33;;;;;;;3.40;3.20;;;;;;;21.71;100.00;96494.97;5017545;28;20442;-63
2023/07/29 10:58:17;;;;;;;2.87;2.67;;;;;;;22.73;100.00;96496.72;5005648;28;20224;-65
2023/07/29 11:00:46;;;;;;;3.17;2.83;;;;;;;23.24;100.00;96488.31;5013515;28;20322;-65
2023/07/29 11:03:16;;;;;;;2.60;2.50;;;;;;;22.58;100.00;96503.03;4958885;28;20296;-64
2023/07/29 11:05:49;;;;;;;2.90;2.70;;;;;;;22.50;100.00;96497.13;5015158;28;20220;-64
2023/07/29 11:08:21;;;;;;;2.77;2.57;;;;;;;22.54;100.00;96492.81;5012373;28;20228;-64
2023/07/29 11:10:59;;;;;;;1.90;1.80;;;;;;;22.29;100.00;96479.41;5009858;28;20229;-64
2023/07/29 11:13:28;;;;;;;2.30;2.20;;;;;;;22.33;100.00;96496.66;5008127;28;20309;-64
2023/07/29 11:15:58;;;;;;;2.80;2.37;;;;;;;22.19;100.00;96499.13;5009571;28;20291;-64
2023/07/29 11:18:30;;;;;;;2.53;2.43;;;;;;;22.04;100.00;96502.69;5006837;28;20204;-64
2023/07/29 11:20:58;;;;;;;3.13;2.17;;;;;;;21.24;100.00;96495.00;5009633;28;20503;-64
2023/07/29 11:23:33;;;;;;;2.50;2.03;;;;;;;21.22;100.00;96499.84;4887050;28;20259;-64
2023/07/29 11:26:01;;;;;;;2.83;2.20;;;;;;;21.31;100.00;96489.31;5015698;28;20228;-64
2023/07/29 11:28:29;;;;;;;2.57;2.47;;;;;;;21.40;100.00;96494.97;5011955;28;20296;-65